sensor_id;sensor_type;location;lat;lon;timestamp;temperature;humidity
18426;DHT22;9340;48.756;9.226;2023-05-23T00:01:15;17.50;99.90
18426;DHT22;9340;48.756;9.226;2023-05-23T00:03:44;17.50;99.90
18426;DHT22;9340;48.756;9.226;2023-05-23T00:06:11;17.40;99.90
18426;DHT22;9340;48.756;9.226;2023-05-23T00:08:39;17.30;99.90
18426;DHT22;9340;48.756;9.226;2023-05-23T00:11:05;17.20;99.90
18426;DHT22;9340;48.756;9.226;2023-05-23T00:13:32;17.20;99.90
18426;DHT22;9340;48.756;9.226;2023-05-23T00:16:00;17.20;99.90
18426;DHT22;9340;48.756;9.226;2023-05-23T00:18:27;17.10;99.90
18426;DHT22;9340;48.756;9.226;2023-05-23T00:20:56;17.00;99.90
18426;DHT22;9340;48.756;9.226;2023-05-23T00:23:23;17.00;99.90
18426;DHT22;9340;48.756;9.226;2023-05-23T00:25:50;17.00;99.90
18426;DHT22;9340;48.756;9.226;2023-05-23T00:28:18;16.90;99.90
18426;DHT22;9340;48.756;9.226;2023-05-23T00:30:45;16.90;99.90
18426;DHT22;9340;48.756;9.226;2023-05-23T00:33:13;16.90;99.90
18426;DHT22;9340;48.756;9.226;2023-05-23T00:35:40;16.90;99.90
18426;DHT22;9340;48.756;9.226;2023-05-23T00:38:08;16.80;99.90
18426;DHT22;9340;48.756;9.226;2023-05-23T00:40:36;16.70;99.90
18426;DHT22;9340;48.756;9.226;2023-05-23T00:43:02;16.80;99.90
18426;DHT22;9340;48.756;9.226;2023-05-23T00:45:29;16.80;99.90
18426;DHT22;9340;48.756;9.226;2023-05-23T00:47:56;16.70;99.90
18426;DHT22;9340;48.756;9.226;2023-05-23T00:50:23;16.70;99.90
18426;DHT22;9340;48.756;9.226;2023-05-23T00:52:55;16.70;99.90
18426;DHT22;9340;48.756;9.226;2023-05-23T00:55:23;16.80;99.90
18426;DHT22;9340;48.756;9.226;2023-05-23T00:57:51;16.80;99.90
18426;DHT22;9340;48.756;9.226;2023-05-23T01:00:20;16.70;99.90
18426;DHT22;9340;48.756;9.226;2023-05-23T01:02:47;16.60;99.90
18426;DHT22;9340;48.756;9.226;2023-05-23T01:05:15;16.60;99.90
18426;DHT22;9340;48.756;9.226;2023-05-23T01:07:42;16.60;99.90
18426;DHT22;9340;48.756;9.226;2023-05-23T01:10:10;16.70;99.90
18426;DHT22;9340;48.756;9.226;2023-05-23T01:12:47;16.70;99.90
18426;DHT22;9340;48.756;9.226;2023-05-23T01:15:19;16.70;99.90
18426;DHT22;9340;48.756;9.226;2023-05-23T01:17:51;16.60;99.90
18426;DHT22;9340;48.756;9.226;2023-05-23T01:20:21;16.50;99.90
18426;DHT22;9340;48.756;9.226;2023-05-23T01:23:02;16.50;99.90
18426;DHT22;9340;48.756;9.226;2023-05-23T01:25:43;16.40;99.90
18426;DHT22;9340;48.756;9.226;2023-05-23T01:28:17;16.40;99.90
18426;DHT22;9340;48.756;9.226;2023-05-23T01:30:45;16.50;99.90
18426;DHT22;9340;48.756;9.226;2023-05-23T01:33:15;16.40;99.90
18426;DHT22;9340;48.756;9.226;2023-05-23T01:35:42;16.40;99.90
18426;DHT22;9340;48.756;9.226;2023-05-23T01:38:09;16.40;99.90
18426;DHT22;9340;48.756;9.226;2023-05-23T01:40:36;16.40;99.90
18426;DHT22;9340;48.756;9.226;2023-05-23T01:43:03;16.40;99.90
18426;DHT22;9340;48.756;9.226;2023-05-23T01:45:31;16.40;99.90
18426;DHT22;9340;48.756;9.226;2023-05-23T01:47:59;16.50;99.90
18426;DHT22;9340;48.756;9.226;2023-05-23T01:50:26;16.60;99.90
18426;DHT22;9340;48.756;9.226;2023-05-23T01:52:53;16.70;99.90
18426;DHT22;9340;48.756;9.226;2023-05-23T01:55:21;16.60;99.90
18426;DHT22;9340;48.756;9.226;2023-05-23T01:57:49;16.70;99.90
18426;DHT22;9340;48.756;9.226;2023-05-23T02:00:17;16.70;99.90
18426;DHT22;9340;48.756;9.226;2023-05-23T02:02:45;16.60;99.90
18426;DHT22;9340;48.756;9.226;2023-05-23T02:05:12;16.50;99.90
18426;DHT22;9340;48.756;9.226;2023-05-23T02:07:39;16.40;99.90
18426;DHT22;9340;48.756;9.226;2023-05-23T02:10:07;16.30;99.90
18426;DHT22;9340;48.756;9.226;2023-05-23T02:12:34;16.30;99.90
18426;DHT22;9340;48.756;9.226;2023-05-23T02:15:01;16.30;99.90
18426;DHT22;9340;48.756;9.226;2023-05-23T02:17:28;16.20;99.90
18426;DHT22;9340;48.756;9.226;2023-05-23T02:19:56;16.20;99.90
18426;DHT22;9340;48.756;9.226;2023-05-23T02:22:23;16.20;99.90
18426;DHT22;9340;48.756;9.226;2023-05-23T02:24:50;16.10;99.90
18426;DHT22;9340;48.756;9.226;2023-05-23T02:27:17;16.10;99.90
18426;DHT22;9340;48.756;9.226;2023-05-23T02:29:44;16.00;99.90
18426;DHT22;9340;48.756;9.226;2023-05-23T02:32:11;16.00;99.90
18426;DHT22;9340;48.756;9.226;2023-05-23T02:34:38;15.90;99.90
18426;DHT22;9340;48.756;9.226;2023-05-23T02:37:06;15.80;99.90
18426;DHT22;9340;48.756;9.226;2023-05-23T02:39:34;15.80;99.90
18426;DHT22;9340;48.756;9.226;2023-05-23T02:42:00;15.80;99.90
18426;DHT22;9340;48.756;9.226;2023-05-23T02:44:27;15.70;99.90
18426;DHT22;9340;48.756;9.226;2023-05-23T02:46:54;15.80;99.90
18426;DHT22;9340;48.756;9.226;2023-05-23T02:49:20;15.80;99.90
18426;DHT22;9340;48.756;9.226;2023-05-23T02:51:47;15.90;99.90
18426;DHT22;9340;48.756;9.226;2023-05-23T02:54:15;16.00;99.90
18426;DHT22;9340;48.756;9.226;2023-05-23T02:56:43;16.10;99.90
18426;DHT22;9340;48.756;9.226;2023-05-23T02:59:10;16.20;99.90
18426;DHT22;9340;48.756;9.226;2023-05-23T03:01:38;16.30;99.90
18426;DHT22;9340;48.756;9.226;2023-05-23T03:04:05;16.40;99.90
18426;DHT22;9340;48.756;9.226;2023-05-23T03:06:32;16.50;99.90
18426;DHT22;9340;48.756;9.226;2023-05-23T03:09:01;16.50;99.90
18426;DHT22;9340;48.756;9.226;2023-05-23T03:11:29;16.60;99.90
18426;DHT22;9340;48.756;9.226;2023-05-23T03:13:56;16.70;99.90
18426;DHT22;9340;48.756;9.226;2023-05-23T03:16:22;16.80;99.90
18426;DHT22;9340;48.756;9.226;2023-05-23T03:18:49;16.80;99.90
18426;DHT22;9340;48.756;9.226;2023-05-23T03:21:15;16.90;99.90
18426;DHT22;9340;48.756;9.226;2023-05-23T03:23:42;17.00;99.90
18426;DHT22;9340;48.756;9.226;2023-05-23T03:26:09;17.00;99.90
18426;DHT22;9340;48.756;9.226;2023-05-23T03:28:37;17.10;99.90
18426;DHT22;9340;48.756;9.226;2023-05-23T03:31:04;17.10;99.90
18426;DHT22;9340;48.756;9.226;2023-05-23T03:33:31;17.20;99.90
18426;DHT22;9340;48.756;9.226;2023-05-23T03:35:57;17.20;99.90
18426;DHT22;9340;48.756;9.226;2023-05-23T03:38:24;17.30;99.90
18426;DHT22;9340;48.756;9.226;2023-05-23T03:40:51;17.20;99.90
18426;DHT22;9340;48.756;9.226;2023-05-23T03:43:18;17.20;99.90
18426;DHT22;9340;48.756;9.226;2023-05-23T03:45:46;17.30;99.90
18426;DHT22;9340;48.756;9.226;2023-05-23T03:48:13;17.30;99.90
18426;DHT22;9340;48.756;9.226;2023-05-23T03:50:40;17.30;99.90
18426;DHT22;9340;48.756;9.226;2023-05-23T03:53:07;17.40;99.90
18426;DHT22;9340;48.756;9.226;2023-05-23T03:55:33;17.40;99.90
18426;DHT22;9340;48.756;9.226;2023-05-23T03:58:00;17.40;99.90
18426;DHT22;9340;48.756;9.226;2023-05-23T04:00:27;17.40;99.90
18426;DHT22;9340;48.756;9.226;2023-05-23T04:02:55;17.30;99.90
18426;DHT22;9340;48.756;9.226;2023-05-23T04:05:22;17.40;99.90
18426;DHT22;9340;48.756;9.226;2023-05-23T04:07:49;17.40;99.90
18426;DHT22;9340;48.756;9.226;2023-05-23T04:10:16;17.40;99.90
18426;DHT22;9340;48.756;9.226;2023-05-23T04:12:42;17.40;99.90
18426;DHT22;9340;48.756;9.226;2023-05-23T04:15:09;17.40;99.90
18426;DHT22;9340;48.756;9.226;2023-05-23T04:17:36;17.50;99.90
18426;DHT22;9340;48.756;9.226;2023-05-23T04:20:06;17.50;99.90
18426;DHT22;9340;48.756;9.226;2023-05-23T04:22:33;17.60;99.90
18426;DHT22;9340;48.756;9.226;2023-05-23T04:25:00;17.60;99.90
18426;DHT22;9340;48.756;9.226;2023-05-23T04:27:27;17.70;99.90
18426;DHT22;9340;48.756;9.226;2023-05-23T04:29:54;17.60;99.90
18426;DHT22;9340;48.756;9.226;2023-05-23T04:32:22;17.60;99.90
18426;DHT22;9340;48.756;9.226;2023-05-23T04:34:49;17.60;99.90
18426;DHT22;9340;48.756;9.226;2023-05-23T04:37:17;17.70;99.90
18426;DHT22;9340;48.756;9.226;2023-05-23T04:39:46;17.60;99.90
18426;DHT22;9340;48.756;9.226;2023-05-23T04:42:13;17.70;99.90
18426;DHT22;9340;48.756;9.226;2023-05-23T04:44:40;17.70;99.90
18426;DHT22;9340;48.756;9.226;2023-05-23T04:47:07;17.70;99.90
18426;DHT22;9340;48.756;9.226;2023-05-23T04:49:35;17.70;99.90
18426;DHT22;9340;48.756;9.226;2023-05-23T04:52:01;17.70;99.90
18426;DHT22;9340;48.756;9.226;2023-05-23T04:54:29;17.70;99.90
18426;DHT22;9340;48.756;9.226;2023-05-23T04:56:57;17.70;99.90
18426;DHT22;9340;48.756;9.226;2023-05-23T04:59:24;17.70;99.90
18426;DHT22;9340;48.756;9.226;2023-05-23T05:01:51;17.70;99.90
18426;DHT22;9340;48.756;9.226;2023-05-23T05:04:17;17.70;99.90
18426;DHT22;9340;48.756;9.226;2023-05-23T05:06:44;17.80;99.90
18426;DHT22;9340;48.756;9.226;2023-05-23T05:09:12;17.80;99.90
18426;DHT22;9340;48.756;9.226;2023-05-23T05:11:40;17.90;99.90
18426;DHT22;9340;48.756;9.226;2023-05-23T05:14:07;17.90;99.90
18426;DHT22;9340;48.756;9.226;2023-05-23T05:16:34;18.10;99.90
18426;DHT22;9340;48.756;9.226;2023-05-23T05:19:00;18.20;99.90
18426;DHT22;9340;48.756;9.226;2023-05-23T05:21:27;18.40;99.90
18426;DHT22;9340;48.756;9.226;2023-05-23T05:23:53;18.50;99.90
18426;DHT22;9340;48.756;9.226;2023-05-23T05:26:20;18.50;99.90
18426;DHT22;9340;48.756;9.226;2023-05-23T05:28:49;18.40;99.90
18426;DHT22;9340;48.756;9.226;2023-05-23T05:31:16;18.40;99.90
18426;DHT22;9340;48.756;9.226;2023-05-23T05:33:43;18.50;99.90
18426;DHT22;9340;48.756;9.226;2023-05-23T05:36:10;18.50;99.90
18426;DHT22;9340;48.756;9.226;2023-05-23T05:38:37;18.50;99.90
18426;DHT22;9340;48.756;9.226;2023-05-23T05:41:04;18.40;99.90
18426;DHT22;9340;48.756;9.226;2023-05-23T05:43:31;18.30;99.90
18426;DHT22;9340;48.756;9.226;2023-05-23T05:45:59;18.30;99.90
18426;DHT22;9340;48.756;9.226;2023-05-23T05:48:25;18.40;99.90
18426;DHT22;9340;48.756;9.226;2023-05-23T05:50:52;18.40;99.90
18426;DHT22;9340;48.756;9.226;2023-05-23T05:53:19;18.50;99.90
18426;DHT22;9340;48.756;9.226;2023-05-23T05:55:45;18.60;99.90
18426;DHT22;9340;48.756;9.226;2023-05-23T05:58:12;18.60;99.90
18426;DHT22;9340;48.756;9.226;2023-05-23T06:00:38;18.50;99.90
18426;DHT22;9340;48.756;9.226;2023-05-23T06:03:09;18.60;99.90
18426;DHT22;9340;48.756;9.226;2023-05-23T06:05:36;18.60;99.90
18426;DHT22;9340;48.756;9.226;2023-05-23T06:08:04;18.70;99.90
18426;DHT22;9340;48.756;9.226;2023-05-23T06:10:31;18.70;99.90
18426;DHT22;9340;48.756;9.226;2023-05-23T06:12:58;18.80;99.90
18426;DHT22;9340;48.756;9.226;2023-05-23T06:15:25;19.00;99.90
18426;DHT22;9340;48.756;9.226;2023-05-23T06:17:51;19.10;99.90
18426;DHT22;9340;48.756;9.226;2023-05-23T06:20:19;19.20;99.90
18426;DHT22;9340;48.756;9.226;2023-05-23T06:22:46;19.20;99.90
18426;DHT22;9340;48.756;9.226;2023-05-23T06:25:13;19.10;99.90
18426;DHT22;9340;48.756;9.226;2023-05-23T06:27:39;19.40;99.90
18426;DHT22;9340;48.756;9.226;2023-05-23T06:30:07;19.70;99.90
18426;DHT22;9340;48.756;9.226;2023-05-23T06:32:34;20.00;99.90
18426;DHT22;9340;48.756;9.226;2023-05-23T06:35:01;20.10;99.90
18426;DHT22;9340;48.756;9.226;2023-05-23T06:37:29;20.10;99.90
18426;DHT22;9340;48.756;9.226;2023-05-23T06:39:55;20.10;99.90
18426;DHT22;9340;48.756;9.226;2023-05-23T06:42:22;20.30;99.90
18426;DHT22;9340;48.756;9.226;2023-05-23T06:44:49;20.30;99.90
18426;DHT22;9340;48.756;9.226;2023-05-23T06:47:15;20.40;99.90
18426;DHT22;9340;48.756;9.226;2023-05-23T06:49:42;20.40;99.90
18426;DHT22;9340;48.756;9.226;2023-05-23T06:52:10;20.30;99.90
18426;DHT22;9340;48.756;9.226;2023-05-23T06:54:37;20.10;99.90
18426;DHT22;9340;48.756;9.226;2023-05-23T06:57:05;19.90;99.90
18426;DHT22;9340;48.756;9.226;2023-05-23T06:59:31;19.80;99.90
18426;DHT22;9340;48.756;9.226;2023-05-23T07:01:58;19.70;99.90
18426;DHT22;9340;48.756;9.226;2023-05-23T07:04:24;19.30;99.90
18426;DHT22;9340;48.756;9.226;2023-05-23T07:06:52;19.10;99.90
18426;DHT22;9340;48.756;9.226;2023-05-23T07:09:19;19.00;99.90
18426;DHT22;9340;48.756;9.226;2023-05-23T07:11:47;19.00;99.90
18426;DHT22;9340;48.756;9.226;2023-05-23T07:14:14;19.10;99.90
18426;DHT22;9340;48.756;9.226;2023-05-23T07:16:41;19.00;99.90
18426;DHT22;9340;48.756;9.226;2023-05-23T07:19:07;18.80;99.90
18426;DHT22;9340;48.756;9.226;2023-05-23T07:21:34;18.80;99.90
18426;DHT22;9340;48.756;9.226;2023-05-23T07:24:01;18.70;99.90
18426;DHT22;9340;48.756;9.226;2023-05-23T07:26:28;18.80;99.90
18426;DHT22;9340;48.756;9.226;2023-05-23T07:28:56;18.80;99.90
18426;DHT22;9340;48.756;9.226;2023-05-23T07:31:22;18.70;99.90
18426;DHT22;9340;48.756;9.226;2023-05-23T07:33:49;18.50;99.90
18426;DHT22;9340;48.756;9.226;2023-05-23T07:36:16;18.50;99.90
18426;DHT22;9340;48.756;9.226;2023-05-23T07:38:42;18.40;99.90
18426;DHT22;9340;48.756;9.226;2023-05-23T07:41:09;18.40;99.90
18426;DHT22;9340;48.756;9.226;2023-05-23T07:43:35;18.50;99.90
18426;DHT22;9340;48.756;9.226;2023-05-23T07:46:03;18.50;99.90
18426;DHT22;9340;48.756;9.226;2023-05-23T07:48:30;18.60;99.90
18426;DHT22;9340;48.756;9.226;2023-05-23T07:50:57;18.70;99.90
18426;DHT22;9340;48.756;9.226;2023-05-23T07:53:24;18.60;99.90
18426;DHT22;9340;48.756;9.226;2023-05-23T07:55:50;18.40;99.90
18426;DHT22;9340;48.756;9.226;2023-05-23T07:58:17;18.40;99.90
18426;DHT22;9340;48.756;9.226;2023-05-23T08:00:44;18.50;99.90
18426;DHT22;9340;48.756;9.226;2023-05-23T08:03:12;18.50;99.90
18426;DHT22;9340;48.756;9.226;2023-05-23T08:05:38;18.50;99.90
18426;DHT22;9340;48.756;9.226;2023-05-23T08:08:05;18.50;99.90
18426;DHT22;9340;48.756;9.226;2023-05-23T08:10:32;18.60;99.90
18426;DHT22;9340;48.756;9.226;2023-05-23T08:12:58;18.80;99.90
18426;DHT22;9340;48.756;9.226;2023-05-23T08:15:28;18.80;99.90
18426;DHT22;9340;48.756;9.226;2023-05-23T08:17:55;18.80;99.90
18426;DHT22;9340;48.756;9.226;2023-05-23T08:20:24;18.60;99.90
18426;DHT22;9340;48.756;9.226;2023-05-23T08:22:56;18.50;99.90
18426;DHT22;9340;48.756;9.226;2023-05-23T08:25:23;18.40;99.90
18426;DHT22;9340;48.756;9.226;2023-05-23T08:27:50;18.40;99.90
18426;DHT22;9340;48.756;9.226;2023-05-23T08:30:16;18.40;99.90
18426;DHT22;9340;48.756;9.226;2023-05-23T08:32:43;18.50;99.90
18426;DHT22;9340;48.756;9.226;2023-05-23T08:35:10;18.60;99.90
18426;DHT22;9340;48.756;9.226;2023-05-23T08:37:38;18.50;99.90
18426;DHT22;9340;48.756;9.226;2023-05-23T08:40:06;18.50;99.90
18426;DHT22;9340;48.756;9.226;2023-05-23T08:42:37;18.50;99.90
18426;DHT22;9340;48.756;9.226;2023-05-23T08:45:04;18.60;99.90
18426;DHT22;9340;48.756;9.226;2023-05-23T08:47:33;18.80;99.90
18426;DHT22;9340;48.756;9.226;2023-05-23T08:50:03;19.10;99.90
18426;DHT22;9340;48.756;9.226;2023-05-23T08:52:32;19.20;99.90
18426;DHT22;9340;48.756;9.226;2023-05-23T08:55:01;19.20;99.90
18426;DHT22;9340;48.756;9.226;2023-05-23T08:57:28;18.70;99.90
18426;DHT22;9340;48.756;9.226;2023-05-23T08:59:56;18.70;99.90
18426;DHT22;9340;48.756;9.226;2023-05-23T09:02:23;18.90;99.90
18426;DHT22;9340;48.756;9.226;2023-05-23T09:04:50;19.00;99.90
18426;DHT22;9340;48.756;9.226;2023-05-23T09:07:18;19.10;99.90
18426;DHT22;9340;48.756;9.226;2023-05-23T09:09:44;19.30;99.90
18426;DHT22;9340;48.756;9.226;2023-05-23T09:12:13;19.30;99.90
18426;DHT22;9340;48.756;9.226;2023-05-23T09:14:40;19.20;99.90
18426;DHT22;9340;48.756;9.226;2023-05-23T09:17:14;19.20;99.90
18426;DHT22;9340;48.756;9.226;2023-05-23T09:19:41;19.20;99.90
18426;DHT22;9340;48.756;9.226;2023-05-23T09:22:07;19.20;99.90
18426;DHT22;9340;48.756;9.226;2023-05-23T09:24:34;19.20;99.90
18426;DHT22;9340;48.756;9.226;2023-05-23T09:27:01;19.50;99.90
18426;DHT22;9340;48.756;9.226;2023-05-23T09:29:29;19.60;99.90
18426;DHT22;9340;48.756;9.226;2023-05-23T09:31:59;19.70;99.90
18426;DHT22;9340;48.756;9.226;2023-05-23T09:34:27;19.80;99.90
18426;DHT22;9340;48.756;9.226;2023-05-23T09:36:54;19.70;99.90
18426;DHT22;9340;48.756;9.226;2023-05-23T09:39:21;19.50;99.90
18426;DHT22;9340;48.756;9.226;2023-05-23T09:41:48;19.50;99.90
18426;DHT22;9340;48.756;9.226;2023-05-23T09:44:21;19.60;99.90
18426;DHT22;9340;48.756;9.226;2023-05-23T09:46:51;19.60;99.90
18426;DHT22;9340;48.756;9.226;2023-05-23T09:49:18;19.60;99.90
18426;DHT22;9340;48.756;9.226;2023-05-23T09:51:56;19.80;99.90
18426;DHT22;9340;48.756;9.226;2023-05-23T09:54:23;20.10;99.90
18426;DHT22;9340;48.756;9.226;2023-05-23T09:56:52;20.10;99.90
18426;DHT22;9340;48.756;9.226;2023-05-23T09:59:21;20.00;99.90
18426;DHT22;9340;48.756;9.226;2023-05-23T10:01:54;20.10;99.90
18426;DHT22;9340;48.756;9.226;2023-05-23T10:04:24;19.90;99.90
18426;DHT22;9340;48.756;9.226;2023-05-23T10:06:53;19.60;99.90
18426;DHT22;9340;48.756;9.226;2023-05-23T10:09:24;19.60;99.90
18426;DHT22;9340;48.756;9.226;2023-05-23T10:12:34;19.60;99.90
18426;DHT22;9340;48.756;9.226;2023-05-23T10:15:05;19.90;99.90
18426;DHT22;9340;48.756;9.226;2023-05-23T10:17:39;20.10;99.90
18426;DHT22;9340;48.756;9.226;2023-05-23T10:20:10;20.40;99.90
18426;DHT22;9340;48.756;9.226;2023-05-23T10:22:37;20.60;99.90
18426;DHT22;9340;48.756;9.226;2023-05-23T10:25:05;20.60;99.90
18426;DHT22;9340;48.756;9.226;2023-05-23T10:27:33;20.80;99.90
18426;DHT22;9340;48.756;9.226;2023-05-23T10:30:00;21.00;99.90
18426;DHT22;9340;48.756;9.226;2023-05-23T10:32:27;21.30;99.90
18426;DHT22;9340;48.756;9.226;2023-05-23T10:35:00;22.00;99.90
18426;DHT22;9340;48.756;9.226;2023-05-23T10:37:34;22.70;99.90
18426;DHT22;9340;48.756;9.226;2023-05-23T10:40:09;22.80;99.90
18426;DHT22;9340;48.756;9.226;2023-05-23T10:42:47;22.80;99.90
18426;DHT22;9340;48.756;9.226;2023-05-23T10:45:16;22.10;99.90
18426;DHT22;9340;48.756;9.226;2023-05-23T10:47:43;22.20;99.90
18426;DHT22;9340;48.756;9.226;2023-05-23T10:50:15;22.20;99.90
18426;DHT22;9340;48.756;9.226;2023-05-23T10:52:42;22.40;99.90
18426;DHT22;9340;48.756;9.226;2023-05-23T10:55:13;22.70;99.90
18426;DHT22;9340;48.756;9.226;2023-05-23T10:57:42;22.90;99.90
18426;DHT22;9340;48.756;9.226;2023-05-23T11:00:13;22.90;99.90
18426;DHT22;9340;48.756;9.226;2023-05-23T11:02:48;22.90;99.90
18426;DHT22;9340;48.756;9.226;2023-05-23T11:05:22;22.40;99.90
18426;DHT22;9340;48.756;9.226;2023-05-23T11:08:15;22.20;99.90
18426;DHT22;9340;48.756;9.226;2023-05-23T11:10:58;22.20;99.90
18426;DHT22;9340;48.756;9.226;2023-05-23T11:13:25;22.00;99.90
18426;DHT22;9340;48.756;9.226;2023-05-23T11:16:25;22.10;99.90
18426;DHT22;9340;48.756;9.226;2023-05-23T11:21:44;22.00;99.90
18426;DHT22;9340;48.756;9.226;2023-05-23T11:24:11;22.10;99.90
18426;DHT22;9340;48.756;9.226;2023-05-23T11:26:38;22.20;99.90
18426;DHT22;9340;48.756;9.226;2023-05-23T11:29:07;22.30;99.90
18426;DHT22;9340;48.756;9.226;2023-05-23T11:31:36;22.20;99.90
18426;DHT22;9340;48.756;9.226;2023-05-23T11:34:03;22.10;99.90
18426;DHT22;9340;48.756;9.226;2023-05-23T11:36:31;22.40;99.90
18426;DHT22;9340;48.756;9.226;2023-05-23T11:39:02;22.70;99.90
18426;DHT22;9340;48.756;9.226;2023-05-23T11:41:29;23.30;99.90
18426;DHT22;9340;48.756;9.226;2023-05-23T11:43:57;23.70;99.90
18426;DHT22;9340;48.756;9.226;2023-05-23T11:46:26;23.70;99.90
18426;DHT22;9340;48.756;9.226;2023-05-23T11:48:52;23.70;99.90
18426;DHT22;9340;48.756;9.226;2023-05-23T11:51:19;23.80;99.90
18426;DHT22;9340;48.756;9.226;2023-05-23T11:53:46;23.50;99.90
18426;DHT22;9340;48.756;9.226;2023-05-23T11:56:15;23.00;99.90
18426;DHT22;9340;48.756;9.226;2023-05-23T11:58:42;22.90;99.90
18426;DHT22;9340;48.756;9.226;2023-05-23T12:01:11;23.10;99.90
18426;DHT22;9340;48.756;9.226;2023-05-23T12:03:44;23.20;99.90
18426;DHT22;9340;48.756;9.226;2023-05-23T12:06:13;23.60;99.90
18426;DHT22;9340;48.756;9.226;2023-05-23T12:08:40;24.20;99.90
18426;DHT22;9340;48.756;9.226;2023-05-23T12:11:07;24.80;99.90
18426;DHT22;9340;48.756;9.226;2023-05-23T12:13:35;25.30;99.90
18426;DHT22;9340;48.756;9.226;2023-05-23T12:16:02;25.80;99.90
18426;DHT22;9340;48.756;9.226;2023-05-23T12:18:30;25.60;99.90
18426;DHT22;9340;48.756;9.226;2023-05-23T12:20:59;24.70;99.90
18426;DHT22;9340;48.756;9.226;2023-05-23T12:23:27;24.00;99.90
18426;DHT22;9340;48.756;9.226;2023-05-23T12:25:55;24.00;99.90
18426;DHT22;9340;48.756;9.226;2023-05-23T12:28:36;23.70;99.90
18426;DHT22;9340;48.756;9.226;2023-05-23T12:31:10;23.70;99.90
18426;DHT22;9340;48.756;9.226;2023-05-23T12:33:37;24.10;99.90
18426;DHT22;9340;48.756;9.226;2023-05-23T12:36:05;24.20;99.90
18426;DHT22;9340;48.756;9.226;2023-05-23T12:38:32;24.00;99.90
18426;DHT22;9340;48.756;9.226;2023-05-23T12:41:11;23.70;99.90
18426;DHT22;9340;48.756;9.226;2023-05-23T12:43:49;23.50;99.90
18426;DHT22;9340;48.756;9.226;2023-05-23T12:46:16;23.40;99.90
18426;DHT22;9340;48.756;9.226;2023-05-23T12:48:43;23.90;99.90
18426;DHT22;9340;48.756;9.226;2023-05-23T12:51:09;24.60;99.90
18426;DHT22;9340;48.756;9.226;2023-05-23T12:53:36;25.20;99.90
18426;DHT22;9340;48.756;9.226;2023-05-23T12:56:03;25.30;99.90
18426;DHT22;9340;48.756;9.226;2023-05-23T12:58:30;25.20;99.90
18426;DHT22;9340;48.756;9.226;2023-05-23T13:01:00;25.30;99.90
18426;DHT22;9340;48.756;9.226;2023-05-23T13:03:27;25.20;99.90
18426;DHT22;9340;48.756;9.226;2023-05-23T13:05:55;25.20;99.90
18426;DHT22;9340;48.756;9.226;2023-05-23T13:08:22;25.10;99.90
18426;DHT22;9340;48.756;9.226;2023-05-23T13:10:49;24.90;99.90
18426;DHT22;9340;48.756;9.226;2023-05-23T13:13:16;24.40;99.90
18426;DHT22;9340;48.756;9.226;2023-05-23T13:15:42;24.20;99.90
18426;DHT22;9340;48.756;9.226;2023-05-23T13:18:10;23.60;99.90
18426;DHT22;9340;48.756;9.226;2023-05-23T13:20:37;23.60;99.90
18426;DHT22;9340;48.756;9.226;2023-05-23T13:23:05;24.10;99.90
18426;DHT22;9340;48.756;9.226;2023-05-23T13:25:32;24.80;99.90
18426;DHT22;9340;48.756;9.226;2023-05-23T13:27:59;25.10;99.90
18426;DHT22;9340;48.756;9.226;2023-05-23T13:30:27;24.70;99.90
18426;DHT22;9340;48.756;9.226;2023-05-23T13:32:54;24.20;99.90
18426;DHT22;9340;48.756;9.226;2023-05-23T13:35:22;23.80;99.90
18426;DHT22;9340;48.756;9.226;2023-05-23T13:37:48;23.70;99.90
18426;DHT22;9340;48.756;9.226;2023-05-23T13:40:17;23.60;99.90
18426;DHT22;9340;48.756;9.226;2023-05-23T13:42:44;23.10;99.90
18426;DHT22;9340;48.756;9.226;2023-05-23T13:45:11;23.00;99.90
18426;DHT22;9340;48.756;9.226;2023-05-23T13:47:37;22.30;99.90
18426;DHT22;9340;48.756;9.226;2023-05-23T13:50:05;21.70;99.90
18426;DHT22;9340;48.756;9.226;2023-05-23T13:52:34;21.60;99.90
18426;DHT22;9340;48.756;9.226;2023-05-23T13:55:01;21.70;99.90
18426;DHT22;9340;48.756;9.226;2023-05-23T13:57:29;21.70;99.90
18426;DHT22;9340;48.756;9.226;2023-05-23T13:59:55;21.80;99.90
18426;DHT22;9340;48.756;9.226;2023-05-23T14:02:22;22.30;99.90
18426;DHT22;9340;48.756;9.226;2023-05-23T14:04:49;22.70;99.90
18426;DHT22;9340;48.756;9.226;2023-05-23T14:07:16;23.10;99.90
18426;DHT22;9340;48.756;9.226;2023-05-23T14:09:44;23.10;99.90
18426;DHT22;9340;48.756;9.226;2023-05-23T14:12:11;23.10;99.90
18426;DHT22;9340;48.756;9.226;2023-05-23T14:14:37;23.30;99.90
18426;DHT22;9340;48.756;9.226;2023-05-23T14:17:04;23.70;99.90
18426;DHT22;9340;48.756;9.226;2023-05-23T14:19:31;24.00;99.90
18426;DHT22;9340;48.756;9.226;2023-05-23T14:21:58;24.30;99.90
18426;DHT22;9340;48.756;9.226;2023-05-23T14:24:24;24.40;99.90
18426;DHT22;9340;48.756;9.226;2023-05-23T14:26:52;24.50;99.90
18426;DHT22;9340;48.756;9.226;2023-05-23T14:29:19;24.50;99.90
18426;DHT22;9340;48.756;9.226;2023-05-23T14:31:46;24.20;99.90
18426;DHT22;9340;48.756;9.226;2023-05-23T14:34:14;24.00;99.90
18426;DHT22;9340;48.756;9.226;2023-05-23T14:36:41;24.20;99.90
18426;DHT22;9340;48.756;9.226;2023-05-23T14:39:07;24.40;99.90
18426;DHT22;9340;48.756;9.226;2023-05-23T14:41:34;24.60;99.90
18426;DHT22;9340;48.756;9.226;2023-05-23T14:44:03;24.30;99.90
18426;DHT22;9340;48.756;9.226;2023-05-23T14:46:30;24.20;99.90
18426;DHT22;9340;48.756;9.226;2023-05-23T14:48:57;23.90;99.90
18426;DHT22;9340;48.756;9.226;2023-05-23T14:51:24;23.90;99.90
18426;DHT22;9340;48.756;9.226;2023-05-23T14:53:50;24.20;99.90
18426;DHT22;9340;48.756;9.226;2023-05-23T14:56:17;24.40;99.90
18426;DHT22;9340;48.756;9.226;2023-05-23T14:58:44;24.20;99.90
18426;DHT22;9340;48.756;9.226;2023-05-23T15:01:12;23.90;99.90
18426;DHT22;9340;48.756;9.226;2023-05-23T15:03:39;23.70;99.90
18426;DHT22;9340;48.756;9.226;2023-05-23T15:06:05;23.30;99.90
18426;DHT22;9340;48.756;9.226;2023-05-23T15:08:32;23.20;99.90
18426;DHT22;9340;48.756;9.226;2023-05-23T15:10:59;23.30;99.90
18426;DHT22;9340;48.756;9.226;2023-05-23T15:13:26;23.40;99.90
18426;DHT22;9340;48.756;9.226;2023-05-23T15:15:53;23.30;99.90
18426;DHT22;9340;48.756;9.226;2023-05-23T15:18:21;23.40;99.90
18426;DHT22;9340;48.756;9.226;2023-05-23T15:20:47;23.30;99.90
18426;DHT22;9340;48.756;9.226;2023-05-23T15:23:14;23.30;99.90
18426;DHT22;9340;48.756;9.226;2023-05-23T15:25:41;23.20;99.90
18426;DHT22;9340;48.756;9.226;2023-05-23T15:28:08;23.00;99.90
18426;DHT22;9340;48.756;9.226;2023-05-23T15:30:34;22.80;99.90
18426;DHT22;9340;48.756;9.226;2023-05-23T15:33:01;22.70;99.90
18426;DHT22;9340;48.756;9.226;2023-05-23T15:35:29;22.40;99.90
18426;DHT22;9340;48.756;9.226;2023-05-23T15:37:56;22.30;99.90
18426;DHT22;9340;48.756;9.226;2023-05-23T15:40:23;22.20;99.90
18426;DHT22;9340;48.756;9.226;2023-05-23T15:42:50;22.20;99.90
18426;DHT22;9340;48.756;9.226;2023-05-23T15:45:16;22.40;99.90
18426;DHT22;9340;48.756;9.226;2023-05-23T15:47:43;22.70;99.90
18426;DHT22;9340;48.756;9.226;2023-05-23T15:50:10;23.10;99.90
18426;DHT22;9340;48.756;9.226;2023-05-23T15:52:38;23.20;99.90